sensor_id;sensor_type;location;lat;lon;timestamp;temperature;humidity
20158;DHT22;10239;56.820;24.416;2022-09-09T00:01:08;8.20;99.90
20158;DHT22;10239;56.820;24.416;2022-09-09T00:03:45;8.10;99.90
20158;DHT22;10239;56.820;24.416;2022-09-09T00:06:33;8.10;99.90
20158;DHT22;10239;56.820;24.416;2022-09-09T00:09:20;8.00;99.90
20158;DHT22;10239;56.820;24.416;2022-09-09T00:15:00;8.10;99.90
20158;DHT22;10239;56.820;24.416;2022-09-09T00:17:39;8.20;99.90
20158;DHT22;10239;56.820;24.416;2022-09-09T00:20:28;8.20;99.90
20158;DHT22;10239;56.820;24.416;2022-09-09T00:23:09;8.00;99.90
20158;DHT22;10239;56.820;24.416;2022-09-09T00:26:06;7.80;99.90
20158;DHT22;10239;56.820;24.416;2022-09-09T00:28:52;7.80;99.90
20158;DHT22;10239;56.820;24.416;2022-09-09T00:31:26;7.60;99.90
20158;DHT22;10239;56.820;24.416;2022-09-09T00:34:00;7.50;99.90
20158;DHT22;10239;56.820;24.416;2022-09-09T00:36:32;7.60;99.90
20158;DHT22;10239;56.820;24.416;2022-09-09T00:39:02;7.50;99.90
20158;DHT22;10239;56.820;24.416;2022-09-09T00:44:34;7.50;99.90
20158;DHT22;10239;56.820;24.416;2022-09-09T00:50:00;7.40;99.90
20158;DHT22;10239;56.820;24.416;2022-09-09T00:52:52;7.50;99.90
20158;DHT22;10239;56.820;24.416;2022-09-09T00:55:39;7.50;99.90
20158;DHT22;10239;56.820;24.416;2022-09-09T00:58:09;7.50;99.90
20158;DHT22;10239;56.820;24.416;2022-09-09T01:03:27;7.50;99.90
20158;DHT22;10239;56.820;24.416;2022-09-09T01:11:01;7.50;99.90
20158;DHT22;10239;56.820;24.416;2022-09-09T01:13:32;7.40;99.90
20158;DHT22;10239;56.820;24.416;2022-09-09T01:16:08;7.40;99.90
20158;DHT22;10239;56.820;24.416;2022-09-09T01:18:45;7.20;99.90
20158;DHT22;10239;56.820;24.416;2022-09-09T01:21:39;7.30;99.90
20158;DHT22;10239;56.820;24.416;2022-09-09T01:24:43;7.20;99.90
20158;DHT22;10239;56.820;24.416;2022-09-09T01:27:20;7.20;99.90
20158;DHT22;10239;56.820;24.416;2022-09-09T01:29:48;7.20;99.90
20158;DHT22;10239;56.820;24.416;2022-09-09T01:33:12;7.10;99.90
20158;DHT22;10239;56.820;24.416;2022-09-09T01:38:12;7.10;99.90
20158;DHT22;10239;56.820;24.416;2022-09-09T01:40:41;7.10;99.90
20158;DHT22;10239;56.820;24.416;2022-09-09T01:43:08;7.10;99.90
20158;DHT22;10239;56.820;24.416;2022-09-09T01:45:38;7.00;99.90
20158;DHT22;10239;56.820;24.416;2022-09-09T01:48:06;7.10;99.90
20158;DHT22;10239;56.820;24.416;2022-09-09T01:50:52;7.10;99.90
20158;DHT22;10239;56.820;24.416;2022-09-09T01:53:21;7.20;99.90
20158;DHT22;10239;56.820;24.416;2022-09-09T01:58:43;7.10;99.90
20158;DHT22;10239;56.820;24.416;2022-09-09T02:04:04;7.00;99.90
20158;DHT22;10239;56.820;24.416;2022-09-09T02:06:38;7.10;99.90
20158;DHT22;10239;56.820;24.416;2022-09-09T02:09:22;7.00;99.90
20158;DHT22;10239;56.820;24.416;2022-09-09T02:12:16;7.00;99.90
20158;DHT22;10239;56.820;24.416;2022-09-09T02:14:59;6.90;99.90
20158;DHT22;10239;56.820;24.416;2022-09-09T02:17:36;6.90;99.90
20158;DHT22;10239;56.820;24.416;2022-09-09T02:20:13;7.00;99.90
20158;DHT22;10239;56.820;24.416;2022-09-09T02:22:57;7.00;99.90
20158;DHT22;10239;56.820;24.416;2022-09-09T02:25:28;7.00;99.90
20158;DHT22;10239;56.820;24.416;2022-09-09T02:28:09;6.90;99.90
20158;DHT22;10239;56.820;24.416;2022-09-09T02:30:40;6.90;99.90
20158;DHT22;10239;56.820;24.416;2022-09-09T02:33:10;6.80;99.90
20158;DHT22;10239;56.820;24.416;2022-09-09T02:35:46;6.80;99.90
20158;DHT22;10239;56.820;24.416;2022-09-09T02:38:20;6.80;99.90
20158;DHT22;10239;56.820;24.416;2022-09-09T02:41:01;6.70;99.90
20158;DHT22;10239;56.820;24.416;2022-09-09T02:43:33;6.90;99.90
20158;DHT22;10239;56.820;24.416;2022-09-09T02:56:53;6.50;99.90
20158;DHT22;10239;56.820;24.416;2022-09-09T02:59:33;6.70;99.90
20158;DHT22;10239;56.820;24.416;2022-09-09T03:02:01;6.60;99.90
20158;DHT22;10239;56.820;24.416;2022-09-09T03:04:29;6.80;99.90
20158;DHT22;10239;56.820;24.416;2022-09-09T03:06:59;6.70;99.90
20158;DHT22;10239;56.820;24.416;2022-09-09T03:09:26;6.80;99.90
20158;DHT22;10239;56.820;24.416;2022-09-09T03:11:56;6.60;99.90
20158;DHT22;10239;56.820;24.416;2022-09-09T03:14:26;6.70;99.90
20158;DHT22;10239;56.820;24.416;2022-09-09T03:16:54;6.70;99.90
20158;DHT22;10239;56.820;24.416;2022-09-09T03:19:25;6.70;99.90
20158;DHT22;10239;56.820;24.416;2022-09-09T03:21:54;6.60;99.90
20158;DHT22;10239;56.820;24.416;2022-09-09T03:24:23;6.50;99.90
20158;DHT22;10239;56.820;24.416;2022-09-09T03:26:52;6.60;99.90
20158;DHT22;10239;56.820;24.416;2022-09-09T03:29:20;6.50;99.90
20158;DHT22;10239;56.820;24.416;2022-09-09T03:31:51;6.40;99.90
20158;DHT22;10239;56.820;24.416;2022-09-09T03:34:19;6.50;99.90
20158;DHT22;10239;56.820;24.416;2022-09-09T03:36:47;6.50;99.90
20158;DHT22;10239;56.820;24.416;2022-09-09T03:39:18;6.60;99.90
20158;DHT22;10239;56.820;24.416;2022-09-09T03:41:46;6.50;99.90
20158;DHT22;10239;56.820;24.416;2022-09-09T03:44:15;6.60;99.90
20158;DHT22;10239;56.820;24.416;2022-09-09T03:46:43;6.60;99.90
20158;DHT22;10239;56.820;24.416;2022-09-09T03:49:11;6.50;99.90
20158;DHT22;10239;56.820;24.416;2022-09-09T03:51:39;6.40;99.90
20158;DHT22;10239;56.820;24.416;2022-09-09T03:54:09;6.40;99.90
20158;DHT22;10239;56.820;24.416;2022-09-09T03:56:38;6.30;99.90
20158;DHT22;10239;56.820;24.416;2022-09-09T03:59:08;6.30;99.90
20158;DHT22;10239;56.820;24.416;2022-09-09T04:01:38;6.30;99.90
20158;DHT22;10239;56.820;24.416;2022-09-09T04:11:18;6.50;99.90
20158;DHT22;10239;56.820;24.416;2022-09-09T04:14:21;6.60;99.90
20158;DHT22;10239;56.820;24.416;2022-09-09T04:17:05;6.60;99.90
20158;DHT22;10239;56.820;24.416;2022-09-09T04:19:36;6.60;99.90
20158;DHT22;10239;56.820;24.416;2022-09-09T04:22:13;6.60;99.90
20158;DHT22;10239;56.820;24.416;2022-09-09T04:24:42;6.70;99.90
20158;DHT22;10239;56.820;24.416;2022-09-09T04:27:16;6.70;99.90
20158;DHT22;10239;56.820;24.416;2022-09-09T04:29:44;6.80;99.90
20158;DHT22;10239;56.820;24.416;2022-09-09T04:32:12;7.00;99.90
20158;DHT22;10239;56.820;24.416;2022-09-09T04:34:49;7.10;99.90
20158;DHT22;10239;56.820;24.416;2022-09-09T04:38:02;7.00;99.90
20158;DHT22;10239;56.820;24.416;2022-09-09T04:44:52;7.00;99.90
20158;DHT22;10239;56.820;24.416;2022-09-09T04:47:22;7.10;99.90
20158;DHT22;10239;56.820;24.416;2022-09-09T04:49:50;7.30;99.90
20158;DHT22;10239;56.820;24.416;2022-09-09T04:52:20;7.50;99.90
20158;DHT22;10239;56.820;24.416;2022-09-09T04:54:47;8.30;99.90
20158;DHT22;10239;56.820;24.416;2022-09-09T04:57:15;10.40;99.90
20158;DHT22;10239;56.820;24.416;2022-09-09T04:59:46;11.70;99.90
20158;DHT22;10239;56.820;24.416;2022-09-09T05:02:15;13.20;99.90
20158;DHT22;10239;56.820;24.416;2022-09-09T05:04:43;14.40;99.90
20158;DHT22;10239;56.820;24.416;2022-09-09T05:07:12;15.00;99.90
20158;DHT22;10239;56.820;24.416;2022-09-09T05:09:40;16.00;99.90
20158;DHT22;10239;56.820;24.416;2022-09-09T05:12:08;16.70;99.90
20158;DHT22;10239;56.820;24.416;2022-09-09T05:14:40;16.90;99.90
20158;DHT22;10239;56.820;24.416;2022-09-09T05:17:08;17.20;99.90
20158;DHT22;10239;56.820;24.416;2022-09-09T05:19:37;16.70;99.90
20158;DHT22;10239;56.820;24.416;2022-09-09T05:22:05;17.50;99.90
20158;DHT22;10239;56.820;24.416;2022-09-09T05:24:40;18.50;99.90
20158;DHT22;10239;56.820;24.416;2022-09-09T05:27:08;18.20;99.90
20158;DHT22;10239;56.820;24.416;2022-09-09T05:29:40;18.60;99.90
20158;DHT22;10239;56.820;24.416;2022-09-09T05:32:11;19.50;99.90
20158;DHT22;10239;56.820;24.416;2022-09-09T05:34:44;19.40;99.90
20158;DHT22;10239;56.820;24.416;2022-09-09T05:37:11;18.20;99.90
20158;DHT22;10239;56.820;24.416;2022-09-09T05:39:39;17.90;99.90
20158;DHT22;10239;56.820;24.416;2022-09-09T05:42:07;19.20;99.90
20158;DHT22;10239;56.820;24.416;2022-09-09T05:44:35;20.20;99.90
20158;DHT22;10239;56.820;24.416;2022-09-09T05:47:03;19.70;99.90
20158;DHT22;10239;56.820;24.416;2022-09-09T05:49:31;19.90;99.90
20158;DHT22;10239;56.820;24.416;2022-09-09T05:51:59;20.50;99.90
20158;DHT22;10239;56.820;24.416;2022-09-09T05:54:27;21.40;99.90
20158;DHT22;10239;56.820;24.416;2022-09-09T05:56:55;21.50;99.90
20158;DHT22;10239;56.820;24.416;2022-09-09T05:59:23;21.40;99.90
20158;DHT22;10239;56.820;24.416;2022-09-09T06:01:54;22.10;99.90
20158;DHT22;10239;56.820;24.416;2022-09-09T06:04:31;21.80;99.90
20158;DHT22;10239;56.820;24.416;2022-09-09T06:07:00;21.30;99.90
20158;DHT22;10239;56.820;24.416;2022-09-09T06:09:29;21.40;99.90
20158;DHT22;10239;56.820;24.416;2022-09-09T06:11:57;22.10;99.90
20158;DHT22;10239;56.820;24.416;2022-09-09T06:14:26;21.60;99.90
20158;DHT22;10239;56.820;24.416;2022-09-09T06:16:57;22.20;99.90
20158;DHT22;10239;56.820;24.416;2022-09-09T06:19:28;21.50;99.90
20158;DHT22;10239;56.820;24.416;2022-09-09T06:21:59;21.10;99.90
20158;DHT22;10239;56.820;24.416;2022-09-09T06:24:29;21.60;99.90
20158;DHT22;10239;56.820;24.416;2022-09-09T06:26:59;23.00;99.90
20158;DHT22;10239;56.820;24.416;2022-09-09T06:29:32;21.70;99.80
20158;DHT22;10239;56.820;24.416;2022-09-09T06:32:01;23.00;99.50
20158;DHT22;10239;56.820;24.416;2022-09-09T06:34:30;22.10;98.40
20158;DHT22;10239;56.820;24.416;2022-09-09T06:36:59;22.50;98.60
20158;DHT22;10239;56.820;24.416;2022-09-09T06:39:36;22.40;98.20
20158;DHT22;10239;56.820;24.416;2022-09-09T06:42:04;22.30;98.50
20158;DHT22;10239;56.820;24.416;2022-09-09T06:44:51;23.30;98.00
20158;DHT22;10239;56.820;24.416;2022-09-09T06:47:31;22.40;97.60
20158;DHT22;10239;56.820;24.416;2022-09-09T06:50:01;23.60;96.40
20158;DHT22;10239;56.820;24.416;2022-09-09T06:52:31;24.60;95.90
20158;DHT22;10239;56.820;24.416;2022-09-09T06:55:01;24.30;95.40
20158;DHT22;10239;56.820;24.416;2022-09-09T06:57:30;23.70;95.40
20158;DHT22;10239;56.820;24.416;2022-09-09T07:00:08;23.50;94.30
20158;DHT22;10239;56.820;24.416;2022-09-09T07:02:36;22.90;94.90
20158;DHT22;10239;56.820;24.416;2022-09-09T07:05:08;23.50;95.10
20158;DHT22;10239;56.820;24.416;2022-09-09T07:07:36;24.30;94.10
20158;DHT22;10239;56.820;24.416;2022-09-09T07:10:05;23.70;93.60
20158;DHT22;10239;56.820;24.416;2022-09-09T07:12:34;23.30;93.90
20158;DHT22;10239;56.820;24.416;2022-09-09T07:15:02;23.70;94.30
20158;DHT22;10239;56.820;24.416;2022-09-09T07:17:30;23.70;93.50
20158;DHT22;10239;56.820;24.416;2022-09-09T07:19:59;23.80;92.50
20158;DHT22;10239;56.820;24.416;2022-09-09T07:22:28;23.50;93.10
20158;DHT22;10239;56.820;24.416;2022-09-09T07:24:56;23.60;93.50
20158;DHT22;10239;56.820;24.416;2022-09-09T07:27:25;24.10;92.60
20158;DHT22;10239;56.820;24.416;2022-09-09T07:29:53;24.20;92.30
20158;DHT22;10239;56.820;24.416;2022-09-09T07:32:21;23.70;92.10
20158;DHT22;10239;56.820;24.416;2022-09-09T07:34:49;23.70;92.90
20158;DHT22;10239;56.820;24.416;2022-09-09T07:37:18;24.50;92.20
20158;DHT22;10239;56.820;24.416;2022-09-09T07:39:47;24.80;91.10
20158;DHT22;10239;56.820;24.416;2022-09-09T07:42:17;23.80;91.60
20158;DHT22;10239;56.820;24.416;2022-09-09T07:44:45;23.40;92.80
20158;DHT22;10239;56.820;24.416;2022-09-09T07:47:15;24.10;91.80
20158;DHT22;10239;56.820;24.416;2022-09-09T07:49:46;24.90;91.70
20158;DHT22;10239;56.820;24.416;2022-09-09T07:52:18;24.40;90.40
20158;DHT22;10239;56.820;24.416;2022-09-09T07:54:52;23.90;90.80
20158;DHT22;10239;56.820;24.416;2022-09-09T07:57:20;24.40;91.50
20158;DHT22;10239;56.820;24.416;2022-09-09T07:59:49;25.20;88.50
20158;DHT22;10239;56.820;24.416;2022-09-09T08:02:17;25.20;88.80
20158;DHT22;10239;56.820;24.416;2022-09-09T08:04:45;23.40;90.40
20158;DHT22;10239;56.820;24.416;2022-09-09T08:07:15;23.30;90.60
20158;DHT22;10239;56.820;24.416;2022-09-09T08:09:49;22.30;91.20
20158;DHT22;10239;56.820;24.416;2022-09-09T08:12:31;23.00;92.00
20158;DHT22;10239;56.820;24.416;2022-09-09T08:15:03;23.90;92.10
20158;DHT22;10239;56.820;24.416;2022-09-09T08:17:32;25.00;90.20
20158;DHT22;10239;56.820;24.416;2022-09-09T08:20:05;23.60;90.20
20158;DHT22;10239;56.820;24.416;2022-09-09T08:22:34;22.70;90.30
20158;DHT22;10239;56.820;24.416;2022-09-09T08:25:01;23.30;90.80
20158;DHT22;10239;56.820;24.416;2022-09-09T08:27:31;24.20;91.20
20158;DHT22;10239;56.820;24.416;2022-09-09T08:29:59;24.40;90.30
20158;DHT22;10239;56.820;24.416;2022-09-09T08:32:29;23.10;89.70
20158;DHT22;10239;56.820;24.416;2022-09-09T08:34:58;22.00;90.10
20158;DHT22;10239;56.820;24.416;2022-09-09T08:37:34;22.40;90.80
20158;DHT22;10239;56.820;24.416;2022-09-09T08:40:10;22.50;91.20
20158;DHT22;10239;56.820;24.416;2022-09-09T08:42:52;22.30;91.70
20158;DHT22;10239;56.820;24.416;2022-09-09T08:45:34;23.50;91.00
20158;DHT22;10239;56.820;24.416;2022-09-09T08:48:34;22.50;91.20
20158;DHT22;10239;56.820;24.416;2022-09-09T08:51:27;20.40;91.90
20158;DHT22;10239;56.820;24.416;2022-09-09T08:54:00;20.70;93.60
20158;DHT22;10239;56.820;24.416;2022-09-09T08:56:32;20.30;92.70
20158;DHT22;10239;56.820;24.416;2022-09-09T08:59:22;21.10;92.80
20158;DHT22;10239;56.820;24.416;2022-09-09T09:02:42;22.30;90.60
20158;DHT22;10239;56.820;24.416;2022-09-09T09:04:52;21.60;91.20
20158;DHT22;10239;56.820;24.416;2022-09-09T09:07:39;21.10;92.50
20158;DHT22;10239;56.820;24.416;2022-09-09T09:10:46;21.90;91.70
20158;DHT22;10239;56.820;24.416;2022-09-09T09:16:34;22.10;91.10
20158;DHT22;10239;56.820;24.416;2022-09-09T09:19:13;21.80;92.30
20158;DHT22;10239;56.820;24.416;2022-09-09T09:22:02;22.00;90.90
20158;DHT22;10239;56.820;24.416;2022-09-09T09:31:14;22.30;91.90
20158;DHT22;10239;56.820;24.416;2022-09-09T09:33:50;23.10;90.60
20158;DHT22;10239;56.820;24.416;2022-09-09T09:36:33;23.10;91.00
20158;DHT22;10239;56.820;24.416;2022-09-09T09:39:04;22.70;91.40
20158;DHT22;10239;56.820;24.416;2022-09-09T09:41:56;22.70;90.40
20158;DHT22;10239;56.820;24.416;2022-09-09T09:44:32;21.30;91.80
20158;DHT22;10239;56.820;24.416;2022-09-09T09:47:24;20.80;93.00
20158;DHT22;10239;56.820;24.416;2022-09-09T09:50:22;20.60;93.10
20158;DHT22;10239;56.820;24.416;2022-09-09T09:53:05;20.90;93.00
20158;DHT22;10239;56.820;24.416;2022-09-09T09:55:54;21.20;92.10
20158;DHT22;10239;56.820;24.416;2022-09-09T10:01:30;22.30;91.40
20158;DHT22;10239;56.820;24.416;2022-09-09T10:04:21;21.20;92.50
20158;DHT22;10239;56.820;24.416;2022-09-09T10:07:09;21.80;93.10
20158;DHT22;10239;56.820;24.416;2022-09-09T10:09:41;21.40;92.50
20158;DHT22;10239;56.820;24.416;2022-09-09T10:15:42;21.00;92.30
20158;DHT22;10239;56.820;24.416;2022-09-09T10:26:44;20.40;94.40
20158;DHT22;10239;56.820;24.416;2022-09-09T10:29:25;21.30;93.00
20158;DHT22;10239;56.820;24.416;2022-09-09T10:35:52;21.20;93.40
20158;DHT22;10239;56.820;24.416;2022-09-09T10:46:45;20.30;93.10
20158;DHT22;10239;56.820;24.416;2022-09-09T10:49:20;20.70;93.80
20158;DHT22;10239;56.820;24.416;2022-09-09T10:57:58;20.00;94.00
20158;DHT22;10239;56.820;24.416;2022-09-09T11:00:49;20.80;94.10
20158;DHT22;10239;56.820;24.416;2022-09-09T11:03:26;20.60;93.90
20158;DHT22;10239;56.820;24.416;2022-09-09T11:06:14;20.90;94.20
20158;DHT22;10239;56.820;24.416;2022-09-09T11:08:43;20.40;93.00
20158;DHT22;10239;56.820;24.416;2022-09-09T11:11:17;20.20;94.40
20158;DHT22;10239;56.820;24.416;2022-09-09T11:13:54;20.40;93.70
20158;DHT22;10239;56.820;24.416;2022-09-09T11:16:51;20.30;93.60
20158;DHT22;10239;56.820;24.416;2022-09-09T11:19:55;20.10;94.60
20158;DHT22;10239;56.820;24.416;2022-09-09T11:25:01;19.80;94.80
20158;DHT22;10239;56.820;24.416;2022-09-09T11:30:54;20.10;95.60
20158;DHT22;10239;56.820;24.416;2022-09-09T11:36:50;19.60;94.50
20158;DHT22;10239;56.820;24.416;2022-09-09T11:39:44;19.30;95.40
20158;DHT22;10239;56.820;24.416;2022-09-09T11:42:20;19.30;95.70
20158;DHT22;10239;56.820;24.416;2022-09-09T11:44:48;19.50;95.80
20158;DHT22;10239;56.820;24.416;2022-09-09T11:47:30;19.40;94.90
20158;DHT22;10239;56.820;24.416;2022-09-09T11:50:32;19.30;95.20
20158;DHT22;10239;56.820;24.416;2022-09-09T11:53:19;19.10;95.30
20158;DHT22;10239;56.820;24.416;2022-09-09T11:56:06;18.80;96.30
20158;DHT22;10239;56.820;24.416;2022-09-09T11:58:40;18.70;96.10
20158;DHT22;10239;56.820;24.416;2022-09-09T12:01:25;18.90;96.30
20158;DHT22;10239;56.820;24.416;2022-09-09T12:04:22;18.70;95.10
20158;DHT22;10239;56.820;24.416;2022-09-09T12:07:02;18.90;95.10
20158;DHT22;10239;56.820;24.416;2022-09-09T12:09:50;18.80;95.80
20158;DHT22;10239;56.820;24.416;2022-09-09T12:12:30;18.40;96.50
20158;DHT22;10239;56.820;24.416;2022-09-09T12:34:11;18.70;97.50
20158;DHT22;10239;56.820;24.416;2022-09-09T12:36:41;18.80;96.50
20158;DHT22;10239;56.820;24.416;2022-09-09T12:39:33;18.80;96.80
20158;DHT22;10239;56.820;24.416;2022-09-09T12:42:03;18.90;96.20
20158;DHT22;10239;56.820;24.416;2022-09-09T12:44:31;18.90;97.60
20158;DHT22;10239;56.820;24.416;2022-09-09T12:47:02;18.90;96.30
20158;DHT22;10239;56.820;24.416;2022-09-09T12:49:36;18.70;96.30
20158;DHT22;10239;56.820;24.416;2022-09-09T12:52:14;18.80;96.10
20158;DHT22;10239;56.820;24.416;2022-09-09T12:54:45;18.90;97.30
20158;DHT22;10239;56.820;24.416;2022-09-09T12:57:15;18.80;97.10
20158;DHT22;10239;56.820;24.416;2022-09-09T12:59:43;18.70;97.00
20158;DHT22;10239;56.820;24.416;2022-09-09T13:02:21;18.50;96.80
20158;DHT22;10239;56.820;24.416;2022-09-09T13:04:49;18.20;96.40
20158;DHT22;10239;56.820;24.416;2022-09-09T13:07:18;18.30;95.90
20158;DHT22;10239;56.820;24.416;2022-09-09T13:09:47;18.50;95.90
20158;DHT22;10239;56.820;24.416;2022-09-09T13:12:21;18.10;96.50
20158;DHT22;10239;56.820;24.416;2022-09-09T13:14:53;17.90;97.20
20158;DHT22;10239;56.820;24.416;2022-09-09T13:17:24;18.30;96.30
20158;DHT22;10239;56.820;24.416;2022-09-09T13:19:52;18.50;96.30
20158;DHT22;10239;56.820;24.416;2022-09-09T13:22:26;18.60;97.00
20158;DHT22;10239;56.820;24.416;2022-09-09T13:27:35;18.10;96.70
20158;DHT22;10239;56.820;24.416;2022-09-09T13:30:29;18.20;96.60
20158;DHT22;10239;56.820;24.416;2022-09-09T13:35:54;17.90;96.70
20158;DHT22;10239;56.820;24.416;2022-09-09T13:38:23;18.20;96.50
20158;DHT22;10239;56.820;24.416;2022-09-09T13:40:59;18.20;96.80
20158;DHT22;10239;56.820;24.416;2022-09-09T13:43:33;18.30;97.00
20158;DHT22;10239;56.820;24.416;2022-09-09T13:46:04;18.40;96.50
20158;DHT22;10239;56.820;24.416;2022-09-09T13:48:33;18.20;97.20
20158;DHT22;10239;56.820;24.416;2022-09-09T13:51:03;18.10;97.00
20158;DHT22;10239;56.820;24.416;2022-09-09T13:53:32;18.40;96.70
20158;DHT22;10239;56.820;24.416;2022-09-09T13:56:00;18.40;97.20
20158;DHT22;10239;56.820;24.416;2022-09-09T13:58:28;18.50;97.40
20158;DHT22;10239;56.820;24.416;2022-09-09T14:00:57;18.60;96.80
20158;DHT22;10239;56.820;24.416;2022-09-09T14:03:24;18.20;96.70
20158;DHT22;10239;56.820;24.416;2022-09-09T14:05:52;18.40;96.90
20158;DHT22;10239;56.820;24.416;2022-09-09T14:08:24;18.20;97.50
20158;DHT22;10239;56.820;24.416;2022-09-09T14:10:53;18.20;97.80
20158;DHT22;10239;56.820;24.416;2022-09-09T14:13:25;18.10;97.50
20158;DHT22;10239;56.820;24.416;2022-09-09T14:15:53;17.80;97.90
20158;DHT22;10239;56.820;24.416;2022-09-09T14:18:21;18.10;97.70
20158;DHT22;10239;56.820;24.416;2022-09-09T14:20:50;18.30;98.50
20158;DHT22;10239;56.820;24.416;2022-09-09T14:23:18;18.40;98.70
20158;DHT22;10239;56.820;24.416;2022-09-09T14:25:46;18.50;97.20
20158;DHT22;10239;56.820;24.416;2022-09-09T14:28:14;18.30;97.20
20158;DHT22;10239;56.820;24.416;2022-09-09T14:30:43;18.20;98.10
20158;DHT22;10239;56.820;24.416;2022-09-09T14:33:13;18.10;97.90
20158;DHT22;10239;56.820;24.416;2022-09-09T14:35:42;18.00;98.90
20158;DHT22;10239;56.820;24.416;2022-09-09T14:38:11;18.00;97.90
20158;DHT22;10239;56.820;24.416;2022-09-09T14:40:45;18.00;98.70
20158;DHT22;10239;56.820;24.416;2022-09-09T14:43:14;18.00;98.90
20158;DHT22;10239;56.820;24.416;2022-09-09T14:45:42;18.20;98.00
20158;DHT22;10239;56.820;24.416;2022-09-09T14:48:10;18.10;98.70
20158;DHT22;10239;56.820;24.416;2022-09-09T14:50:38;17.90;98.50
20158;DHT22;10239;56.820;24.416;2022-09-09T14:53:08;17.90;98.50
20158;DHT22;10239;56.820;24.416;2022-09-09T14:55:36;18.10;97.60
20158;DHT22;10239;56.820;24.416;2022-09-09T14:58:05;18.10;98.30
20158;DHT22;10239;56.820;24.416;2022-09-09T15:00:33;18.00;99.30
20158;DHT22;10239;56.820;24.416;2022-09-09T15:03:01;17.70;98.90
20158;DHT22;10239;56.820;24.416;2022-09-09T15:05:28;17.60;99.90
20158;DHT22;10239;56.820;24.416;2022-09-09T15:07:56;17.70;99.60
20158;DHT22;10239;56.820;24.416;2022-09-09T15:10:24;17.80;99.90
20158;DHT22;10239;56.820;24.416;2022-09-09T15:12:53;18.00;99.30
20158;DHT22;10239;56.820;24.416;2022-09-09T15:15:21;17.80;99.30
20158;DHT22;10239;56.820;24.416;2022-09-09T15:17:48;17.70;99.00
20158;DHT22;10239;56.820;24.416;2022-09-09T15:20:16;17.70;99.30
20158;DHT22;10239;56.820;24.416;2022-09-09T15:22:43;17.40;99.80
20158;DHT22;10239;56.820;24.416;2022-09-09T15:25:11;17.20;99.90
20158;DHT22;10239;56.820;24.416;2022-09-09T15:27:39;17.50;99.70
20158;DHT22;10239;56.820;24.416;2022-09-09T15:30:08;17.30;99.50
20158;DHT22;10239;56.820;24.416;2022-09-09T15:32:36;17.30;99.80
20158;DHT22;10239;56.820;24.416;2022-09-09T15:35:03;17.20;99.80
20158;DHT22;10239;56.820;24.416;2022-09-09T15:37:31;16.90;99.90
20158;DHT22;10239;56.820;24.416;2022-09-09T15:39:59;16.90;99.90
20158;DHT22;10239;56.820;24.416;2022-09-09T15:42:28;17.00;99.90
20158;DHT22;10239;56.820;24.416;2022-09-09T15:44:57;16.90;99.90
20158;DHT22;10239;56.820;24.416;2022-09-09T15:47:24;17.00;99.90
20158;DHT22;10239;56.820;24.416;2022-09-09T15:49:52;17.00;99.90
20158;DHT22;10239;56.820;24.416;2022-09-09T15:52:20;16.60;99.90
20158;DHT22;10239;56.820;24.416;2022-09-09T15:54:47;16.60;99.90
20158;DHT22;10239;56.820;24.416;2022-09-09T15:57:30;16.60;99.90
20158;DHT22;10239;56.820;24.416;2022-09-09T15:59:57;16.60;99.90
20158;DHT22;10239;56.820;24.416;2022-09-09T16:02:26;16.50;99.90
20158;DHT22;10239;56.820;24.416;2022-09-09T16:04:54;16.30;99.90
20158;DHT22;10239;56.820;24.416;2022-09-09T16:10:42;15.90;99.90
20158;DHT22;10239;56.820;24.416;2022-09-09T16:13:10;15.90;99.90
20158;DHT22;10239;56.820;24.416;2022-09-09T16:15:40;15.90;99.90
20158;DHT22;10239;56.820;24.416;2022-09-09T16:18:08;15.60;99.90
20158;DHT22;10239;56.820;24.416;2022-09-09T16:20:35;15.60;99.90
20158;DHT22;10239;56.820;24.416;2022-09-09T16:23:02;15.60;99.90
20158;DHT22;10239;56.820;24.416;2022-09-09T16:25:30;15.50;99.90
20158;DHT22;10239;56.820;24.416;2022-09-09T16:27:57;15.40;99.90
20158;DHT22;10239;56.820;24.416;2022-09-09T16:30:24;15.30;99.90
20158;DHT22;10239;56.820;24.416;2022-09-09T16:32:52;15.20;99.90
20158;DHT22;10239;56.820;24.416;2022-09-09T16:35:19;15.10;99.90
20158;DHT22;10239;56.820;24.416;2022-09-09T16:37:48;15.20;99.90
20158;DHT22;10239;56.820;24.416;2022-09-09T16:40:16;15.10;99.90
20158;DHT22;10239;56.820;24.416;2022-09-09T16:42:44;14.80;99.90
20158;DHT22;10239;56.820;24.416;2022-09-09T16:45:11;14.80;99.90
20158;DHT22;10239;56.820;24.416;2022-09-09T16:47:40;14.60;99.90
20158;DHT22;10239;56.820;24.416;2022-09-09T16:50:07;14.50;99.90
20158;DHT22;10239;56.820;24.416;2022-09-09T16:52:35;14.40;99.90
20158;DHT22;10239;56.820;24.416;2022-09-09T16:55:02;14.30;99.90
20158;DHT22;10239;56.820;24.416;2022-09-09T16:57:30;14.20;99.90
20158;DHT22;10239;56.820;24.416;2022-09-09T16:59:57;14.20;99.90
20158;DHT22;10239;56.820;24.416;2022-09-09T17:02:26;14.20;99.90
20158;DHT22;10239;56.820;24.416;2022-09-09T17:04:54;14.10;99.90
20158;DHT22;10239;56.820;24.416;2022-09-09T17:07:21;14.00;99.90
20158;DHT22;10239;56.820;24.416;2022-09-09T17:09:50;13.90;99.90
20158;DHT22;10239;56.820;24.416;2022-09-09T17:12:17;13.90;99.90
20158;DHT22;10239;56.820;24.416;2022-09-09T17:14:45;13.80;99.90
20158;DHT22;10239;56.820;24.416;2022-09-09T17:17:13;13.80;99.90
20158;DHT22;10239;56.820;24.416;2022-09-09T17:19:57;13.70;99.90
20158;DHT22;10239;56.820;24.416;2022-09-09T17:22:26;13.50;99.90
20158;DHT22;10239;56.820;24.416;2022-09-09T17:24:53;13.30;99.90
20158;DHT22;10239;56.820;24.416;2022-09-09T17:27:21;13.30;99.90
20158;DHT22;10239;56.820;24.416;2022-09-09T17:29:49;13.10;99.90
20158;DHT22;10239;56.820;24.416;2022-09-09T17:32:16;13.10;99.90
20158;DHT22;10239;56.820;24.416;2022-09-09T17:34:44;13.00;99.90
20158;DHT22;10239;56.820;24.416;2022-09-09T17:37:12;13.00;99.90
20158;DHT22;10239;56.820;24.416;2022-09-09T17:39:40;12.90;99.90
20158;DHT22;10239;56.820;24.416;2022-09-09T17:42:07;12.90;99.90
20158;DHT22;10239;56.820;24.416;2022-09-09T17:44:35;12.70;99.90
20158;DHT22;10239;56.820;24.416;2022-09-09T17:47:02;12.80;99.90
20158;DHT22;10239;56.820;24.416;2022-09-09T17:49:30;12.80;99.90
20158;DHT22;10239;56.820;24.416;2022-09-09T17:51:58;12.70;99.90
20158;DHT22;10239;56.820;24.416;2022-09-09T17:54:26;12.80;99.90
20158;DHT22;10239;56.820;24.416;2022-09-09T17:56:53;12.70;99.90
20158;DHT22;10239;56.820;24.416;2022-09-09T17:59:20;12.70;99.90
20158;DHT22;10239;56.820;24.416;2022-09-09T18:01:48;12.60;99.90
20158;DHT22;10239;56.820;24.416;2022-09-09T18:04:18;12.60;99.90